Apatity, Russia
Current Conditions -  °F | °C
As of 6:00 PM on Thursday 30 Oct 2014 (Local Time) from ULMM Reporting Station
Broken Clouds Broken Clouds  
Wind Chill: 22°   Ceiling: 8000
Heat Index: 32°   Visibility: 6mi
Dew Point: 25°   Wind: 13mph
Humidity: 75%   Direction: 280°W
Pressure: 29.44"   Gusts: 25mph
Location:  67.57°N, 33.39°E
Report Text: ULMM 301500Z 28006G11MPS 9999 SCT020 BKN080 M00/M04 Q0997 NOSIGRMK QFE741 31190050
Loading
Personal Weather Stations






























Interactive Weather Map
Tropical Storm Tracking
New forecast layout! Learn more

10-Day Weather Forecast

Advertisements
Track Severe Weather on mobile